Time;durP1;ratioP1;P1;durP2;ratioP2;P2;SDS_P1;SDS_P2;PMS_P1;PMS_P2;Temp;Humidity;BMP_temperature;BMP_pressure;BME280_temperature;BME280_humidity;BME280_pressure;Samples;Min_cycle;Max_cycle;Signal;HPM_P1;HPM_P2
2022/11/04 05:01:12;;;;;;;2.88;0.90;;;10.50;99.90;;;;;;5612687;23;19921;-72
2022/11/04 05:03:38;;;;;;;3.10;1.03;;;10.60;99.90;;;;;;5026503;28;20479;-70
2022/11/04 05:06:03;;;;;;;4.77;1.53;;;10.50;99.90;;;;;;5032678;28;20029;-71
2022/11/04 05:08:29;;;;;;;2.67;1.07;;;10.50;99.90;;;;;;5033665;28;20029;-70
2022/11/04 05:10:54;;;;;;;2.50;0.90;;;10.50;99.90;;;;;;5033690;28;20482;-72
2022/11/04 05:13:27;;;;;;;4.00;1.10;;;10.50;99.90;;;;;;5032792;28;20025;-71
2022/11/04 05:15:52;;;;;;;7.45;1.40;;;10.50;99.90;;;;;;5031641;28;20101;-72
2022/11/04 05:18:19;;;;;;;4.37;1.53;;;10.60;99.90;;;;;;5031970;28;20069;-72
2022/11/04 05:20:44;;;;;;;4.72;1.45;;;10.60;99.90;;;;;;5032967;28;20283;-71
2022/11/04 05:23:11;;;;;;;4.07;1.23;;;10.60;99.90;;;;;;5032017;28;20541;-72
2022/11/04 05:25:41;;;;;;;4.18;1.13;;;10.50;99.90;;;;;;5028169;28;20449;-72
2022/11/04 05:28:07;;;;;;;2.92;1.10;;;10.50;99.90;;;;;;5031952;28;20073;-72
2022/11/04 05:30:33;;;;;;;4.88;1.15;;;10.60;99.90;;;;;;5031722;28;20021;-72
2022/11/04 05:32:59;;;;;;;7.35;1.25;;;10.60;99.90;;;;;;5026666;28;20091;-71
2022/11/04 05:35:25;;;;;;;4.63;1.30;;;10.60;99.90;;;;;;5015836;28;20386;-72
2022/11/04 05:37:51;;;;;;;9.40;2.13;;;10.60;99.90;;;;;;5031707;28;20026;-71
2022/11/04 05:40:16;;;;;;;3.63;1.33;;;10.60;99.90;;;;;;5033121;28;20022;-72
2022/11/04 05:42:42;;;;;;;6.33;1.30;;;10.50;99.90;;;;;;5033109;28;20045;-72
2022/11/04 05:45:08;;;;;;;3.97;1.10;;;10.40;99.90;;;;;;5031503;28;20268;-72
2022/11/04 05:47:34;;;;;;;4.28;1.02;;;10.40;99.90;;;;;;5032181;28;20183;-72
2022/11/04 05:49:59;;;;;;;5.63;1.47;;;10.50;99.90;;;;;;5031960;28;20125;-71
2022/11/04 05:52:25;;;;;;;5.97;0.97;;;10.50;99.90;;;;;;5025968;28;20498;-70
2022/11/04 05:54:50;;;;;;;2.20;1.20;;;10.50;99.90;;;;;;5031437;28;20409;-71
2022/11/04 05:57:16;;;;;;;2.73;1.17;;;10.60;99.90;;;;;;5034712;28;20462;-71
2022/11/04 05:59:41;;;;;;;3.63;1.00;;;10.50;99.90;;;;;;5034385;28;20025;-71
2022/11/04 06:02:07;;;;;;;2.87;1.10;;;10.60;99.90;;;;;;5031842;28;20029;-71
2022/11/04 06:04:32;;;;;;;4.60;1.27;;;10.50;99.90;;;;;;5033737;28;20021;-70
2022/11/04 06:06:58;;;;;;;3.47;1.67;;;10.60;99.90;;;;;;5031637;28;20131;-71
2022/11/04 06:09:37;;;;;;;3.60;1.00;;;10.60;99.90;;;;;;5032599;28;20100;-70
2022/11/04 06:12:05;;;;;;;3.58;1.45;;;10.50;99.90;;;;;;5036697;28;20486;-71
2022/11/04 06:14:31;;;;;;;4.30;1.20;;;10.40;99.90;;;;;;5036503;28;20386;-71
2022/11/04 06:16:56;;;;;;;3.07;1.00;;;10.30;99.90;;;;;;5035285;28;20026;-71
2022/11/04 06:19:22;;;;;;;2.80;1.00;;;10.30;99.90;;;;;;5036736;28;20032;-71
2022/11/04 06:21:48;;;;;;;5.70;1.83;;;10.40;99.90;;;;;;5036112;28;20021;-71
2022/11/04 06:24:13;;;;;;;3.17;1.33;;;10.40;99.90;;;;;;5036311;28;20029;-71
2022/11/04 06:26:39;;;;;;;5.77;1.10;;;10.50;99.90;;;;;;5036201;28;20045;-71
2022/11/04 06:29:04;;;;;;;3.17;0.90;;;10.50;99.90;;;;;;5036196;28;20037;-70
2022/11/04 06:31:30;;;;;;;4.93;1.43;;;10.40;99.90;;;;;;5034910;28;20022;-71
2022/11/04 06:33:55;;;;;;;3.70;1.50;;;10.30;99.90;;;;;;5036537;28;20087;-71
2022/11/04 06:36:21;;;;;;;2.53;1.30;;;10.50;99.90;;;;;;5036334;28;20029;-71
2022/11/04 06:38:46;;;;;;;2.00;1.30;;;10.40;99.90;;;;;;5036202;28;20022;-71
2022/11/04 06:41:14;;;;;;;3.53;1.43;;;10.40;99.90;;;;;;5034929;28;20031;-71
2022/11/04 06:43:40;;;;;;;4.60;1.63;;;10.40;99.90;;;;;;5034776;28;20501;-71
2022/11/04 06:46:05;;;;;;;4.37;1.23;;;10.50;99.90;;;;;;5035566;28;20128;-71
2022/11/04 06:48:31;;;;;;;6.07;1.40;;;10.50;99.90;;;;;;5037099;28;20470;-71
2022/11/04 06:50:58;;;;;;;3.93;1.37;;;10.40;99.90;;;;;;5034559;28;20029;-71
2022/11/04 06:53:23;;;;;;;2.83;1.17;;;10.40;99.90;;;;;;5034754;28;20033;-70
2022/11/04 06:55:51;;;;;;;5.00;1.80;;;10.50;99.90;;;;;;5036208;28;20026;-70
2022/11/04 06:58:17;;;;;;;3.65;1.20;;;10.40;99.90;;;;;;5035391;28;20159;-70
2022/11/04 07:00:42;;;;;;;6.60;1.50;;;10.40;99.90;;;;;;5034290;28;20087;-70
2022/11/04 07:03:08;;;;;;;3.87;1.50;;;10.50;99.90;;;;;;5035974;28;20026;-70
2022/11/04 07:05:34;;;;;;;3.88;1.58;;;10.50;99.90;;;;;;5035741;28;20033;-71
2022/11/04 07:08:00;;;;;;;3.58;1.40;;;10.70;99.90;;;;;;5029402;28;20026;-71
2022/11/04 07:10:25;;;;;;;4.27;1.37;;;10.70;99.90;;;;;;5034265;28;20064;-71
2022/11/04 07:12:53;;;;;;;5.63;1.60;;;10.80;99.90;;;;;;5034275;28;20033;-71
2022/11/04 07:15:19;;;;;;;2.65;1.00;;;10.80;99.90;;;;;;5035946;28;20029;-71
2022/11/04 07:17:44;;;;;;;3.00;1.53;;;10.70;99.90;;;;;;5028234;28;20482;-70
2022/11/04 07:20:12;;;;;;;6.77;1.33;;;10.70;99.90;;;;;;5024251;28;20022;-69
2022/11/04 07:22:37;;;;;;;4.00;1.40;;;10.70;99.90;;;;;;5020100;28;20018;-71
2022/11/04 07:25:04;;;;;;;4.82;1.60;;;10.80;99.90;;;;;;5026962;28;20099;-72
2022/11/04 07:27:30;;;;;;;3.42;1.70;;;11.10;99.90;;;;;;5016206;28;20048;-73
2022/11/04 07:29:55;;;;;;;3.60;1.50;;;11.20;99.90;;;;;;5015049;28;20363;-71
2022/11/04 07:32:21;;;;;;;5.53;1.40;;;11.30;99.90;;;;;;5014904;28;20030;-69
2022/11/04 07:34:46;;;;;;;4.50;1.70;;;11.40;99.90;;;;;;5015801;28;20034;-70
2022/11/04 07:37:12;;;;;;;4.05;1.38;;;11.40;99.90;;;;;;5018722;28;20105;-69
2022/11/04 07:39:37;;;;;;;8.10;1.80;;;11.40;99.90;;;;;;5021681;28;20030;-68
2022/11/04 07:42:03;;;;;;;4.77;1.40;;;11.50;99.90;;;;;;5025493;28;20128;-70
2022/11/04 07:44:28;;;;;;;2.90;1.20;;;11.50;99.90;;;;;;5013717;28;20062;-71
2022/11/04 07:46:54;;;;;;;3.50;1.70;;;11.50;99.90;;;;;;5015083;28;20112;-71
2022/11/04 07:49:20;;;;;;;2.50;1.40;;;11.50;99.90;;;;;;5014323;28;20025;-71
2022/11/04 07:51:47;;;;;;;8.63;5.00;;;11.40;99.90;;;;;;5014287;28;20349;-70
2022/11/04 07:54:13;;;;;;;5.85;1.90;;;11.40;99.90;;;;;;5016253;28;20026;-72
2022/11/04 07:56:38;;;;;;;2.92;1.45;;;11.30;99.90;;;;;;5018597;28;20077;-71
2022/11/04 07:59:07;;;;;;;3.37;1.83;;;11.30;99.90;;;;;;5017456;28;20022;-71
2022/11/04 08:01:33;;;;;;;2.90;1.75;;;11.40;99.90;;;;;;5015012;28;20426;-71
2022/11/04 08:03:58;;;;;;;7.03;2.10;;;11.30;99.90;;;;;;5016066;28;20021;-70
2022/11/04 08:06:24;;;;;;;15.13;6.95;;;11.50;99.90;;;;;;5015831;28;20113;-70
2022/11/04 08:08:52;;;;;;;11.57;3.90;;;11.50;99.90;;;;;;5013817;28;20109;-70
2022/11/04 08:11:22;;;;;;;5.50;1.83;;;11.70;99.90;;;;;;5014557;28;20045;-70
2022/11/04 08:13:47;;;;;;;7.35;3.28;;;11.90;99.90;;;;;;5013480;28;20057;-70
2022/11/04 08:16:21;;;;;;;4.40;1.30;;;11.80;99.90;;;;;;5013442;28;20034;-70
2022/11/04 08:18:48;;;;;;;5.25;1.50;;;11.90;99.90;;;;;;5013330;28;20072;-70
2022/11/04 08:21:15;;;;;;;4.97;1.90;;;11.80;99.90;;;;;;5013019;28;20034;-71
2022/11/04 08:23:46;;;;;;;3.85;1.30;;;11.80;99.90;;;;;;5014912;28;20045;-72
2022/11/04 08:26:16;;;;;;;6.68;2.63;;;11.90;99.90;;;;;;5014910;28;20466;-71
2022/11/04 08:28:41;;;;;;;4.78;1.50;;;12.10;99.90;;;;;;5014535;28;20026;-72
2022/11/04 08:31:10;;;;;;;4.63;1.65;;;12.20;99.90;;;;;;5014833;28;20022;-73
2022/11/04 08:33:36;;;;;;;4.13;1.38;;;12.40;99.90;;;;;;5016289;28;20026;-71
2022/11/04 08:36:05;;;;;;;8.10;1.90;;;12.60;99.90;;;;;;5013451;28;20368;-75
2022/11/04 08:38:33;;;;;;;4.38;1.65;;;12.60;99.90;;;;;;5014615;28;20022;-76
2022/11/04 08:40:59;;;;;;;4.03;0.90;;;12.60;99.90;;;;;;5015839;28;20453;-67
2022/11/04 08:43:25;;;;;;;5.13;1.20;;;12.60;99.90;;;;;;5014818;28;20090;-72
2022/11/04 08:45:51;;;;;;;4.28;1.30;;;12.80;99.90;;;;;;5016746;28;20121;-75
2022/11/04 08:48:16;;;;;;;;;;;12.90;99.90;;;;;;5014932;28;20400;-69
2022/11/04 08:50:42;;;;;;;3.63;1.52;;;13.00;99.90;;;;;;5013850;28;19975;-75
2022/11/04 08:53:11;;;;;;;4.53;1.17;;;12.90;99.90;;;;;;5014584;28;20026;-78
2022/11/04 08:55:37;;;;;;;7.32;2.28;;;12.90;99.90;;;;;;5022294;28;20034;-74
2022/11/04 08:58:03;;;;;;;5.20;1.57;;;13.10;99.90;;;;;;5033487;28;20021;-72
2022/11/04 09:00:28;;;;;;;4.45;1.30;;;13.00;99.90;;;;;;5037446;28;20100;-70
2022/11/04 09:02:54;;;;;;;6.22;1.65;;;13.10;99.90;;;;;;5036593;28;20089;-70
2022/11/04 09:05:20;;;;;;;4.57;0.98;;;13.20;99.90;;;;;;5033316;28;20079;-71
2022/11/04 09:07:46;;;;;;;5.90;1.60;;;13.50;99.90;;;;;;5034081;28;20107;-72
2022/11/04 09:10:11;;;;;;;4.23;1.57;;;13.50;99.90;;;;;;5029260;28;20455;-76
2022/11/04 09:12:37;;;;;;;2.30;1.20;;;13.60;99.90;;;;;;5018435;28;20117;-70
2022/11/04 09:15:04;;;;;;;4.67;1.17;;;13.30;99.90;;;;;;5032286;28;20282;-76
2022/11/04 09:17:30;;;;;;;5.47;3.20;;;13.50;99.90;;;;;;5028874;28;20021;-72
2022/11/04 09:19:56;;;;;;;4.13;1.30;;;13.60;99.90;;;;;;5023785;28;20032;-71
2022/11/04 09:22:21;;;;;;;5.53;1.83;;;13.90;99.90;;;;;;5025954;28;20498;-70
2022/11/04 09:24:47;;;;;;;3.80;1.10;;;14.40;99.90;;;;;;5034805;28;20072;-74
2022/11/04 09:27:13;;;;;;;4.63;1.95;;;14.90;99.90;;;;;;5027994;28;20312;-71
2022/11/04 09:29:40;;;;;;;5.60;1.52;;;14.60;99.90;;;;;;5017552;28;20489;-69
2022/11/04 09:32:06;;;;;;;;;;;14.80;99.90;;;;;;5019019;28;20026;-70
2022/11/04 09:34:32;;;;;;;6.55;1.90;;;14.90;99.90;;;;;;5029134;28;20425;-67
2022/11/04 09:36:57;;;;;;;4.23;1.20;;;14.80;99.90;;;;;;5026533;28;20113;-67
2022/11/04 09:39:24;;;;;;;5.80;1.48;;;14.60;99.90;;;;;;5030320;28;20394;-67
2022/11/04 09:42:06;;;;;;;5.43;1.33;;;14.80;99.90;;;;;;5033942;28;20026;-66
2022/11/04 09:44:47;;;;;;;3.78;1.00;;;15.30;99.90;;;;;;5034218;28;20025;-68
2022/11/04 09:47:14;;;;;;;3.90;1.08;;;15.40;99.90;;;;;;5036568;28;20033;-66
2022/11/04 09:49:43;;;;;;;5.38;1.27;;;15.40;99.90;;;;;;5036492;28;20029;-66
2022/11/04 09:52:20;;;;;;;3.30;1.15;;;15.10;99.90;;;;;;5034964;28;20543;-66
2022/11/04 09:55:19;;;;;;;5.05;1.73;;;14.90;99.90;;;;;;5016949;28;20494;-66
2022/11/04 09:57:52;;;;;;;6.45;1.63;;;14.90;99.90;;;;;;5017145;28;20431;-66
2022/11/04 10:00:19;;;;;;;7.75;1.42;;;14.80;99.90;;;;;;5017593;28;20112;-73
2022/11/04 10:03:16;;;;;;;5.93;1.23;;;14.70;99.90;;;;;;5016636;28;20116;-71
2022/11/04 10:05:51;;;;;;;4.10;1.88;;;14.10;99.90;;;;;;5028255;28;20028;-73
2022/11/04 10:08:38;;;;;;;5.05;1.20;;;14.10;99.90;;;;;;5037824;28;20481;-72
2022/11/04 10:11:16;;;;;;;4.47;1.05;;;13.90;99.90;;;;;;5017157;28;20030;-69
2022/11/04 10:14:07;;;;;;;6.07;1.20;;;13.60;99.90;;;;;;5017343;28;20101;-71
2022/11/04 10:16:52;;;;;;;5.05;1.13;;;13.30;99.90;;;;;;5017891;28;20029;-67
2022/11/04 10:19:34;;;;;;;4.53;1.08;;;13.30;99.90;;;;;;5018090;28;20360;-67
2022/11/04 10:22:36;;;;;;;5.57;1.30;;;13.30;99.90;;;;;;5018515;28;20422;-66
2022/11/04 10:25:15;;;;;;;4.25;1.08;;;13.50;99.90;;;;;;5016596;28;20022;-66
2022/11/04 10:27:45;;;;;;;6.88;1.73;;;13.60;99.90;;;;;;5017292;28;20026;-67
2022/11/04 10:30:18;;;;;;;6.72;1.27;;;13.70;99.90;;;;;;5016636;28;20030;-68
2022/11/04 10:32:50;;;;;;;7.47;1.58;;;13.80;99.90;;;;;;5016896;28;20037;-68
2022/11/04 10:35:40;;;;;;;4.55;0.80;;;13.70;99.90;;;;;;5017021;28;20479;-68
2022/11/04 10:38:42;;;;;;;5.18;1.33;;;13.70;99.90;;;;;;5016452;28;20489;-68
2022/11/04 10:41:23;;;;;;;3.10;1.08;;;13.60;99.90;;;;;;5016584;28;20022;-68
2022/11/04 10:44:02;;;;;;;6.35;1.20;;;13.70;99.90;;;;;;5017224;28;20390;-68
2022/11/04 10:46:55;;;;;;;4.85;1.30;;;14.00;99.90;;;;;;5015217;28;20055;-68
2022/11/04 10:49:47;;;;;;;4.13;1.10;;;14.40;99.90;;;;;;5017789;28;20022;-68
2022/11/04 10:52:13;;;;;;;4.90;1.45;;;14.50;99.90;;;;;;5017674;28;20175;-68
2022/11/04 10:54:44;;;;;;;4.43;1.30;;;14.70;99.90;;;;;;5017349;28;20053;-70
2022/11/04 10:57:15;;;;;;;10.35;2.00;;;14.70;99.90;;;;;;5016887;28;20030;-69
2022/11/04 10:59:59;;;;;;;4.60;1.55;;;14.80;99.90;;;;;;5014894;28;20025;-68
2022/11/04 11:02:36;;;;;;;7.43;1.00;;;14.80;99.90;;;;;;5016505;28;20045;-68
2022/11/04 11:05:12;;;;;;;9.98;1.40;;;14.70;99.90;;;;;;5016273;28;20049;-68
2022/11/04 11:07:38;;;;;;;6.70;1.38;;;14.70;99.90;;;;;;5015841;28;20052;-68
2022/11/04 11:10:04;;;;;;;4.93;1.20;;;14.50;99.90;;;;;;5017388;28;20034;-68
2022/11/04 11:12:35;;;;;;;6.22;2.33;;;14.40;99.90;;;;;;5016903;28;20037;-69
2022/11/04 11:15:25;;;;;;;8.60;2.72;;;14.30;99.90;;;;;;5015891;28;20018;-70
2022/11/04 11:18:11;;;;;;;5.20;1.40;;;14.30;99.90;;;;;;5017227;28;20028;-68
2022/11/04 11:20:39;;;;;;;3.65;0.98;;;14.30;99.90;;;;;;5016111;28;20114;-68
2022/11/04 11:23:25;;;;;;;4.30;0.80;;;14.20;99.90;;;;;;5017173;28;20056;-68
2022/11/04 11:25:51;;;;;;;3.70;1.05;;;14.00;99.90;;;;;;5015015;28;20055;-68
2022/11/04 11:28:24;;;;;;;5.97;1.45;;;13.90;99.90;;;;;;5018319;28;20033;-68
2022/11/04 11:30:59;;;;;;;5.10;1.23;;;14.00;99.90;;;;;;5016657;28;20504;-66
2022/11/04 11:33:31;;;;;;;3.85;1.20;;;14.00;99.90;;;;;;5017454;28;20525;-66
2022/11/04 11:36:15;;;;;;;3.65;1.25;;;13.90;99.90;;;;;;5016010;28;20021;-67
2022/11/04 11:38:54;;;;;;;3.80;1.25;;;14.00;99.90;;;;;;5021588;28;20037;-67
2022/11/04 11:41:27;;;;;;;6.28;1.25;;;14.20;99.90;;;;;;5035435;28;20021;-66
2022/11/04 11:43:54;;;;;;;6.07;1.55;;;14.30;99.90;;;;;;5034057;28;20045;-66
2022/11/04 11:46:22;;;;;;;7.10;1.10;;;14.20;99.90;;;;;;5033518;28;20485;-67
2022/11/04 11:49:21;;;;;;;6.05;1.58;;;14.30;99.90;;;;;;5031513;28;20053;-67
2022/11/04 11:51:49;;;;;;;6.28;2.17;;;14.30;99.90;;;;;;5024576;28;20084;-67
2022/11/04 11:54:32;;;;;;;5.22;1.17;;;14.30;99.90;;;;;;5013603;28;20072;-69
2022/11/04 11:57:02;;;;;;;3.80;1.20;;;14.30;99.90;;;;;;5022725;28;20029;-67
2022/11/04 11:59:34;;;;;;;7.22;1.52;;;14.30;99.90;;;;;;5020944;28;20022;-67
2022/11/04 12:02:35;;;;;;;6.72;1.20;;;14.20;99.90;;;;;;5016419;28;20033;-68
2022/11/04 12:05:01;;;;;;;5.18;1.15;;;14.30;99.90;;;;;;5036412;28;20077;-68
2022/11/04 12:07:35;;;;;;;5.50;1.08;;;14.30;99.90;;;;;;5027666;28;20506;-68
2022/11/04 12:10:30;;;;;;;7.47;2.88;;;14.30;99.90;;;;;;5017485;28;20037;-68
2022/11/04 12:13:15;;;;;;;6.97;1.27;;;14.30;99.90;;;;;;5010210;28;20073;-69
2022/11/04 12:16:26;;;;;;;5.53;0.88;;;14.30;99.90;;;;;;5017489;28;20091;-72
2022/11/04 12:18:57;;;;;;;5.80;1.67;;;14.40;99.90;;;;;;5004438;28;20088;-70
2022/11/04 12:21:32;;;;;;;3.13;0.90;;;14.40;99.90;;;;;;5015655;28;20438;-70
2022/11/04 12:24:00;;;;;;;7.25;1.27;;;14.40;99.90;;;;;;5014439;28;20022;-69
2022/11/04 12:26:38;;;;;;;4.30;1.00;;;14.50;99.90;;;;;;5015367;28;20046;-71
2022/11/04 12:29:29;;;;;;;4.55;0.85;;;14.50;99.90;;;;;;5014954;28;20450;-69
2022/11/04 12:32:23;;;;;;;4.18;0.90;;;14.60;99.90;;;;;;5014163;28;20482;-70
2022/11/04 12:34:57;;;;;;;9.43;1.92;;;14.60;99.90;;;;;;5031926;28;20035;-70
2022/11/04 12:37:39;;;;;;;6.65;1.63;;;14.60;99.90;;;;;;5033861;28;20563;-71
2022/11/04 12:40:10;;;;;;;5.20;1.92;;;14.50;99.90;;;;;;5034814;28;20095;-70
2022/11/04 12:42:42;;;;;;;3.80;1.65;;;14.50;99.90;;;;;;5032806;28;20124;-69
2022/11/04 12:45:23;;;;;;;5.53;1.17;;;14.50;99.90;;;;;;5033616;28;20125;-70
2022/11/04 12:47:49;;;;;;;3.15;0.98;;;14.40;99.90;;;;;;5032851;28;20029;-70
2022/11/04 12:50:27;;;;;;;5.33;1.17;;;14.20;99.90;;;;;;5032936;28;20486;-70
2022/11/04 12:53:24;;;;;;;4.57;1.13;;;14.20;99.90;;;;;;5034081;28;20025;-71
2022/11/04 12:56:36;;;;;;;26.80;3.90;;;14.20;99.90;;;;;;5034577;28;20031;-70
2022/11/04 12:59:28;;;;;;;2.58;0.93;;;14.20;99.90;;;;;;4948471;29;20031;-69
2022/11/04 13:02:03;;;;;;;4.80;0.98;;;14.40;99.90;;;;;;4934882;29;20110;-70
2022/11/04 13:04:58;;;;;;;4.47;1.10;;;14.40;99.90;;;;;;4934571;29;20107;-70
2022/11/04 13:07:40;;;;;;;4.25;1.10;;;14.50;99.90;;;;;;4934511;29;20039;-69
2022/11/04 13:10:18;;;;;;;4.55;1.10;;;14.30;99.90;;;;;;4934720;29;20041;-70
2022/11/04 13:12:46;;;;;;;5.45;1.45;;;14.30;99.90;;;;;;4934541;29;20584;-70
2022/11/04 13:15:19;;;;;;;6.70;1.58;;;14.50;99.90;;;;;;4934273;29;20063;-70
2022/11/04 13:17:46;;;;;;;4.63;1.80;;;14.70;99.90;;;;;;4934492;29;20175;-71
2022/11/04 13:20:14;;;;;;;5.25;1.33;;;14.80;99.90;;;;;;4939356;29;20067;-72
2022/11/04 13:22:46;;;;;;;6.22;1.17;;;14.90;99.90;;;;;;4929965;29;20095;-73
2022/11/04 13:25:38;;;;;;;3.67;1.10;;;15.00;99.90;;;;;;4941575;29;20119;-73
2022/11/04 13:28:10;;;;;;;5.35;1.15;;;15.10;99.90;;;;;;4941825;29;20032;-75
2022/11/04 13:30:54;;;;;;;4.00;1.20;;;15.00;99.90;;;;;;4941398;29;20035;-71
2022/11/04 13:33:40;;;;;;;3.15;0.68;;;15.20;99.90;;;;;;4995011;28;20030;-72
2022/11/04 13:36:23;;;;;;;5.30;0.60;;;15.10;99.90;;;;;;5037628;28;20037;-79
2022/11/04 13:38:56;;;;;;;15.82;1.10;;;15.10;99.90;;;;;;5036985;28;20026;-74
2022/11/04 13:41:57;;;;;;;2.42;0.88;;;15.00;99.90;;;;;;5020649;28;20064;-74
2022/11/04 13:44:29;;;;;;;4.05;0.93;;;14.90;99.90;;;;;;5020968;28;20041;-72
2022/11/04 13:46:58;;;;;;;4.10;0.90;;;14.90;99.90;;;;;;5022958;28;20034;-75
2022/11/04 13:49:29;;;;;;;7.55;1.00;;;14.80;99.90;;;;;;5021576;28;20029;-74
2022/11/04 13:52:05;;;;;;;2.40;0.95;;;14.80;99.90;;;;;;5031140;28;20037;-73
2022/11/04 13:54:41;;;;;;;2.40;0.60;;;14.90;99.90;;;;;;5021503;28;20430;-75
2022/11/04 13:57:22;;;;;;;5.57;1.20;;;14.80;99.90;;;;;;5021115;28;20029;-76
2022/11/04 14:00:06;;;;;;;7.10;1.75;;;14.50;99.90;;;;;;5023838;28;20029;-74
2022/11/04 14:02:45;;;;;;;5.28;2.13;;;14.30;99.90;;;;;;5020541;28;20140;-68
2022/11/04 14:05:26;;;;;;;7.03;1.05;;;14.40;99.90;;;;;;5020220;28;20018;-73
2022/11/04 14:08:00;;;;;;;3.70;0.90;;;14.60;99.90;;;;;;5029224;28;20510;-71
2022/11/04 14:10:58;;;;;;;4.60;0.93;;;14.80;99.90;;;;;;5035393;28;20087;-71
2022/11/04 14:13:27;;;;;;;6.40;1.38;;;14.70;99.90;;;;;;5020291;28;20040;-71
2022/11/04 14:16:31;;;;;;;3.70;1.23;;;14.80;99.90;;;;;;5020562;28;20053;-70
2022/11/04 14:18:56;;;;;;;7.35;2.58;;;14.70;99.90;;;;;;5018587;28;20037;-70
2022/11/04 14:21:25;;;;;;;4.13;0.90;;;14.70;99.90;;;;;;5023472;28;20026;-70
2022/11/04 14:23:56;;;;;;;3.00;0.80;;;14.50;99.90;;;;;;5042327;28;20033;-70
2022/11/04 14:26:44;;;;;;;5.47;1.23;;;14.40;99.90;;;;;;5043331;28;20112;-69
2022/11/04 14:29:25;;;;;;;3.85;0.90;;;14.40;99.90;;;;;;5042727;28;20037;-69
2022/11/04 14:31:53;;;;;;;5.53;1.20;;;14.50;99.90;;;;;;5039856;28;20036;-70
2022/11/04 14:34:35;;;;;;;3.38;0.88;;;14.50;99.90;;;;;;5037963;28;20068;-70
2022/11/04 14:37:28;;;;;;;4.53;1.38;;;14.50;99.90;;;;;;5020066;28;20017;-74
2022/11/04 14:40:06;;;;;;;3.47;1.20;;;14.40;99.90;;;;;;5016880;28;20034;-75
2022/11/04 14:42:51;;;;;;;4.93;1.20;;;14.10;99.90;;;;;;5018769;28;20033;-74
2022/11/04 14:45:23;;;;;;;3.08;0.90;;;14.00;99.90;;;;;;5017277;28;20109;-74
2022/11/04 14:47:56;;;;;;;4.80;0.98;;;13.90;99.90;;;;;;5018331;28;20083;-73
2022/11/04 14:50:27;;;;;;;4.53;1.10;;;13.90;99.90;;;;;;5016172;28;20479;-71
2022/11/04 14:52:57;;;;;;;4.72;1.10;;;13.80;99.90;;;;;;5017077;28;20029;-71
2022/11/04 14:55:29;;;;;;;5.20;1.42;;;13.80;99.90;;;;;;5016949;28;20036;-71
2022/11/04 14:58:12;;;;;;;4.95;0.90;;;13.90;99.90;;;;;;5015067;28;20117;-72
2022/11/04 15:01:00;;;;;;;5.55;1.05;;;13.80;99.90;;;;;;5014921;28;20037;-73
2022/11/04 15:03:31;;;;;;;5.50;1.20;;;13.90;99.90;;;;;;5016903;28;20028;-73
2022/11/04 15:06:02;;;;;;;3.78;1.10;;;13.90;99.90;;;;;;5016663;28;20068;-72
2022/11/04 15:08:40;;;;;;;4.63;1.15;;;13.60;99.90;;;;;;5020464;28;20057;-73
2022/11/04 15:12:49;;;;;;;3.00;0.70;;;13.50;99.90;;;;;;5021041;28;20452;-73
2022/11/04 15:14:25;;;;;;;2.67;0.70;;;13.40;99.90;;;;;;5019451;28;20459;-72
2022/11/04 15:16:56;;;;;;;7.00;1.43;;;13.30;99.90;;;;;;5016538;28;20030;-73
2022/11/04 15:19:35;;;;;;;5.57;1.23;;;13.30;99.90;;;;;;5016648;28;20280;-73
2022/11/04 15:22:03;;;;;;;3.20;0.77;;;13.10;99.90;;;;;;5018046;28;20026;-71
2022/11/04 15:24:29;;;;;;;2.38;0.95;;;13.10;99.90;;;;;;5021562;28;20018;-73
2022/11/04 15:27:02;;;;;;;3.28;1.00;;;13.00;99.90;;;;;;5025769;28;20037;-71
2022/11/04 15:29:27;;;;;;;2.85;0.90;;;13.00;99.90;;;;;;5024637;28;20030;-73
2022/11/04 15:32:01;;;;;;;4.03;1.07;;;13.00;99.90;;;;;;5027149;28;20030;-72
2022/11/04 15:34:31;;;;;;;2.85;1.17;;;12.90;99.90;;;;;;5025583;28;20022;-72
2022/11/04 15:37:03;;;;;;;1.65;0.73;;;12.90;99.90;;;;;;5024129;28;20028;-73
2022/11/04 15:39:36;;;;;;;5.78;1.00;;;12.80;99.90;;;;;;5021966;28;20026;-73
2022/11/04 15:44:51;;;;;;;6.72;1.70;;;12.80;99.90;;;;;;5016656;28;20037;-69
2022/11/04 15:47:17;;;;;;;3.35;1.05;;;12.70;99.90;;;;;;5015404;28;20025;-68
2022/11/04 15:49:44;;;;;;;7.50;1.27;;;12.70;99.90;;;;;;5034539;28;20029;-70
2022/11/04 15:52:25;;;;;;;3.15;0.90;;;12.60;99.90;;;;;;5018530;28;20026;-71
2022/11/04 15:54:53;;;;;;;5.25;1.45;;;12.70;99.90;;;;;;5014557;28;20097;-71
2022/11/04 15:57:25;;;;;;;3.78;1.50;;;12.60;99.90;;;;;;5015415;28;20018;-69
2022/11/04 16:00:01;;;;;;;4.18;1.73;;;12.60;99.90;;;;;;5015226;28;20025;-69
2022/11/04 16:02:29;;;;;;;5.38;1.80;;;12.60;99.90;;;;;;5016799;28;20030;-71
2022/11/04 16:05:10;;;;;;;7.85;1.77;;;12.50;99.90;;;;;;5021504;28;20032;-70
2022/11/04 16:07:39;;;;;;;3.67;1.10;;;12.40;99.90;;;;;;5035329;28;20474;-70
2022/11/04 16:10:38;;;;;;;5.53;1.33;;;12.50;99.90;;;;;;5035033;28;20033;-68
2022/11/04 16:13:13;;;;;;;3.25;1.00;;;12.50;99.90;;;;;;4953854;29;20039;-69
2022/11/04 16:15:41;;;;;;;5.18;2.35;;;12.50;99.90;;;;;;4953856;29;20050;-69
2022/11/04 16:18:20;;;;;;;6.68;1.90;;;12.50;99.90;;;;;;4953756;29;20035;-68
2022/11/04 16:20:47;;;;;;;4.68;1.10;;;12.50;99.90;;;;;;4929534;29;20493;-70
2022/11/04 16:23:17;;;;;;;6.13;2.38;;;12.40;99.90;;;;;;4935307;29;20118;-70
2022/11/04 16:25:43;;;;;;;3.35;1.33;;;12.50;99.90;;;;;;4933060;29;20066;-69
2022/11/04 16:28:19;;;;;;;5.80;2.80;;;12.40;99.90;;;;;;4936775;29;20071;-68
2022/11/04 16:30:57;;;;;;;13.87;5.90;;;12.40;99.90;;;;;;4953513;29;20035;-69
2022/11/04 16:33:23;;;;;;;12.68;5.57;;;12.60;99.90;;;;;;4937596;29;20035;-71
2022/11/04 16:35:48;;;;;;;7.67;3.23;;;12.50;99.90;;;;;;4937603;29;20097;-71
2022/11/04 16:38:14;;;;;;;9.10;2.47;;;12.50;99.90;;;;;;4954016;29;20031;-70
2022/11/04 16:40:42;;;;;;;8.77;3.00;;;12.50;99.90;;;;;;4937810;29;20115;-73
2022/11/04 16:43:09;;;;;;;9.95;2.95;;;12.50;99.90;;;;;;4937254;29;20140;-72
2022/11/04 16:45:37;;;;;;;7.43;2.45;;;12.50;99.90;;;;;;4952526;29;20027;-68
2022/11/04 16:48:04;;;;;;;5.32;1.92;;;12.60;99.90;;;;;;4973272;28;20041;-69
2022/11/04 16:50:32;;;;;;;3.63;1.60;;;12.80;99.90;;;;;;5032974;28;20033;-68
2022/11/04 16:53:00;;;;;;;5.97;1.55;;;12.80;99.90;;;;;;5033080;28;20389;-69
2022/11/04 16:55:26;;;;;;;5.43;2.10;;;12.70;99.90;;;;;;5032663;28;20109;-69
2022/11/04 16:57:58;;;;;;;6.25;2.53;;;12.70;99.90;;;;;;5031234;28;20029;-69
2022/11/04 17:00:25;;;;;;;9.23;2.35;;;12.70;99.90;;;;;;5031398;28;20099;-69
2022/11/04 17:02:51;;;;;;;5.60;2.60;;;12.70;99.90;;;;;;5030289;28;20029;-69
2022/11/04 17:05:17;;;;;;;7.55;2.90;;;12.60;99.90;;;;;;5021515;28;20052;-69
2022/11/04 17:07:43;;;;;;;4.55;1.33;;;12.70;99.90;;;;;;5016001;28;20378;-69
2022/11/04 17:10:13;;;;;;;;;;;12.60;99.90;;;;;;5013892;28;20417;-68
2022/11/04 17:12:38;;;;;;;4.25;1.40;;;12.50;99.90;;;;;;5011985;28;19929;-73
2022/11/04 17:15:04;;;;;;;4.73;1.93;;;12.40;99.90;;;;;;5016427;28;20475;-78
2022/11/04 17:17:30;;;;;;;8.40;2.88;;;12.30;99.90;;;;;;5014255;28;20030;-74
2022/11/04 17:19:55;;;;;;;6.27;2.53;;;12.30;99.90;;;;;;5014603;28;20034;-74
2022/11/04 17:22:21;;;;;;;5.80;2.80;;;12.20;99.90;;;;;;5015743;28;20029;-73
2022/11/04 17:24:46;;;;;;;8.60;3.13;;;12.10;99.90;;;;;;5018121;28;20113;-73
2022/11/04 17:27:12;;;;;;;11.75;5.38;;;12.00;99.90;;;;;;5023179;28;20025;-73
2022/11/04 17:29:38;;;;;;;11.00;4.63;;;12.10;99.90;;;;;;5054243;23;20037;-69
2022/11/04 17:32:04;;;;;;;12.38;5.03;;;12.00;99.90;;;;;;4996272;28;20023;-69
2022/11/04 17:34:29;;;;;;;10.15;5.00;;;12.00;99.90;;;;;;4993668;28;20030;-69
2022/11/04 17:36:55;;;;;;;9.67;4.17;;;12.10;99.90;;;;;;5005202;28;20038;-70
2022/11/04 17:39:20;;;;;;;12.40;3.63;;;12.20;99.90;;;;;;5013514;28;20316;-71
2022/11/04 17:44:30;;;;;;;7.60;2.72;;;12.40;99.90;;;;;;4990115;28;20057;-71
2022/11/04 17:46:59;;;;;;;8.65;2.97;;;12.30;99.90;;;;;;4991111;28;20487;-69
2022/11/04 17:49:25;;;;;;;6.10;2.60;;;12.30;99.90;;;;;;4987793;28;20093;-70
2022/11/04 17:51:54;;;;;;;7.80;2.30;;;12.40;99.90;;;;;;4974237;28;20034;-69
2022/11/04 17:54:21;;;;;;;5.32;2.33;;;12.40;99.90;;;;;;4974452;28;20030;-70
2022/11/04 17:56:47;;;;;;;8.80;2.10;;;12.20;99.90;;;;;;4974016;28;20034;-69
2022/11/04 17:59:14;;;;;;;6.15;2.60;;;12.20;99.90;;;;;;4989107;28;20381;-69
2022/11/04 18:01:41;;;;;;;6.00;2.78;;;12.20;99.90;;;;;;4996123;28;20039;-70
2022/11/04 18:04:06;;;;;;;;;;;12.30;99.90;;;;;;4988250;28;20049;-72
2022/11/04 18:06:34;;;;;;;5.90;2.70;;;12.10;99.90;;;;;;4995598;28;20358;-73
2022/11/04 18:09:00;;;;;;;7.32;2.53;;;12.00;99.90;;;;;;4997176;28;20030;-73
2022/11/04 18:14:14;;;;;;;4.45;2.20;;;12.20;99.90;;;;;;4997909;28;20037;-73
2022/11/04 18:16:41;;;;;;;5.72;2.50;;;12.00;99.90;;;;;;4997076;28;20483;-73
2022/11/04 18:19:06;;;;;;;4.13;2.35;;;12.00;99.90;;;;;;4997837;28;20030;-74
2022/11/04 18:21:32;;;;;;;7.57;2.60;;;12.20;99.90;;;;;;4985977;28;20074;-73